Ilona — VJN3432 — position and weather

sailwx.info

Track history (hours):
 
Tides and Currents Weather Stations Pressure Air Temp Water Temp Dewpoint Dewpoint Depression Visibility Wind Speed Wind Dir Waves Ship Positions

Ilona

Last reported at 2014-Jul-28 08:29 UTC. Time now 2014-Jul-28 10:18 UTC.
Position N 43°43' E 007°26'.

Length 74 m; draft 3.7 m.

Type: Pleasure craft. MMSI: 503514000.

Date/timePositionNaut miles runAvg speedWind from/ knotsBaromVisibWave heightAir tempDewpointWater temp
2014-Jul-28 08:29N 43°43' E 007°26'4 1.3
2014-Jul-28 05:10N 43°42' E 007°20'0 0.0
2014-Jul-28 03:28N 43°42' E 007°20'0 0.0
2014-Jul-28 01:10N 43°42' E 007°20'0 0.0
2014-Jul-28 00:10N 43°42' E 007°20'0 0.0
2014-Jul-27 23:28N 43°42' E 007°20'0 0.0
2014-Jul-27 21:22N 43°42' E 007°20'0 0.0
2014-Jul-27 20:28N 43°42' E 007°20'0 0.0
2014-Jul-27 19:22N 43°42' E 007°20'0 0.0
2014-Jul-27 18:28N 43°42' E 007°20'0 0.0
2014-Jul-27 17:22N 43°42' E 007°20'0 0.0
2014-Jul-27 16:28N 43°42' E 007°20'0 0.0
2014-Jul-27 15:28N 43°42' E 007°20'0 0.0
2014-Jul-27 14:28N 43°42' E 007°20'0 0.2
2014-Jul-27 12:19N 43°42' E 007°21'0 0.0
2014-Jul-27 11:25N 43°42' E 007°21'4 4.1
2014-Jul-27 10:33N 43°39' E 007°18'1413.6
2014-Jul-27 09:33N 43°30' E 007°04'3 3.1
2014-Jul-27 08:26N 43°33' E 007°01'0 0.0
2014-Jul-27 07:29N 43°33' E 007°01'6 7.0
2014-Jul-27 06:33N 43°27' E 006°57'1313.5
2014-Jul-27 05:34N 43°18' E 006°42'4 4.2
2014-Jul-27 04:33N 43°16' E 006°37'0 0.0
2014-Jul-27 03:27N 43°16' E 006°37'0 0.0
2014-Jul-27 02:18N 43°16' E 006°37'0 0.0
2014-Jul-27 01:33N 43°16' E 006°37'0 0.0
2014-Jul-27 00:33N 43°16' E 006°37'0 0.0
2014-Jul-26 23:33N 43°16' E 006°37'0 0.0
2014-Jul-26 22:30N 43°16' E 006°37'0 0.0
2014-Jul-26 21:27N 43°16' E 006°37'0 0.0
2014-Jul-26 20:33N 43°16' E 006°37'0 0.0
2014-Jul-26 19:27N 43°16' E 006°37'0 0.0
2014-Jul-26 18:33N 43°16' E 006°37'0 0.0
2014-Jul-26 17:27N 43°16' E 006°37'0 0.0
2014-Jul-26 16:27N 43°16' E 006°37'0 0.0
2014-Jul-26 15:24N 43°16' E 006°37'0 0.0
2014-Jul-26 14:27N 43°16' E 006°37'0 0.0
2014-Jul-26 13:27N 43°16' E 006°37'1 0.6
2014-Jul-26 12:33N 43°16' E 006°37'0 0.1
2014-Jul-26 11:29N 43°16' E 006°37'0 0.0
2014-Jul-26 10:29N 43°16' E 006°37'0 0.1
2014-Jul-26 09:32N 43°16' E 006°37'0 0.0
2014-Jul-26 08:32N 43°16' E 006°37'0 0.0
2014-Jul-26 07:32N 43°16' E 006°37'0 0.0
2014-Jul-26 06:32N 43°16' E 006°37'0 0.0
2014-Jul-26 05:29N 43°16' E 006°37'0 0.0
2014-Jul-26 04:29N 43°16' E 006°37'0 0.0
2014-Jul-26 03:23N 43°16' E 006°37'0 0.0
2014-Jul-26 02:29N 43°16' E 006°37'0 0.0
2014-Jul-26 01:32N 43°16' E 006°37'0 0.0
2014-Jul-26 00:29N 43°16' E 006°37'0 0.0
2014-Jul-25 23:32N 43°16' E 006°37'0 0.0
2014-Jul-25 22:29N 43°16' E 006°37'0 0.0
2014-Jul-25 21:32N 43°16' E 006°37'0 0.0
2014-Jul-25 20:29N 43°16' E 006°37'0 0.0
2014-Jul-25 19:32N 43°16' E 006°37'4 4.0
2014-Jul-25 18:33N 43°18' E 006°41'1514.6
2014-Jul-25 17:33N 43°26' E 006°58'7 6.4
2014-Jul-25 16:31N 43°32' E 007°03'0 0.0
2014-Jul-25 15:31N 43°32' E 007°03'0 0.0
2014-Jul-25 14:31N 43°32' E 007°03'0 0.0
2014-Jul-25 13:31N 43°32' E 007°03'0 0.0
2014-Jul-25 12:25N 43°32' E 007°03'0 0.0
2014-Jul-25 11:07N 43°32' E 007°03'0 0.1
2014-Jul-25 10:31N 43°32' E 007°03'0 0.0
2014-Jul-25 09:31N 43°32' E 007°03'0 0.0
2014-Jul-25 08:31N 43°32' E 007°03'0 0.0
2014-Jul-25 06:31N 43°32' E 007°03'0 0.0
2014-Jul-25 05:19N 43°32' E 007°03'0 0.0
2014-Jul-25 04:25N 43°32' E 007°03'0 0.0
2014-Jul-25 03:31N 43°32' E 007°03'0 0.0
2014-Jul-25 02:13N 43°32' E 007°03'0 0.0
2014-Jul-25 01:25N 43°32' E 007°03'0 0.0
2014-Jul-25 00:13N 43°32' E 007°03'0 0.0
2014-Jul-24 23:31N 43°32' E 007°03'0 0.0
2014-Jul-24 21:19N 43°32' E 007°03'0 0.0
2014-Jul-24 19:31N 43°32' E 007°03'0 0.0
2014-Jul-24 17:31N 43°32' E 007°03'0 0.0
2014-Jul-24 16:19N 43°32' E 007°03'0 0.0
2014-Jul-24 15:13N 43°32' E 007°03'0 0.0
2014-Jul-24 14:31N 43°32' E 007°03'0 0.0
2014-Jul-24 13:31N 43°32' E 007°03'2 1.8
2014-Jul-24 12:34N 43°30' E 007°02'3 1.3
2014-Jul-24 10:31N 43°33' E 007°01'3 3.4
2014-Jul-24 09:33N 43°30' E 007°03'2 2.0
2014-Jul-24 08:33N 43°32' E 007°03'0 0.0
2014-Jul-24 07:33N 43°32' E 007°03'0 0.0
2014-Jul-24 06:32N 43°32' E 007°03'0 0.0
2014-Jul-24 05:33N 43°32' E 007°03'0 0.0
2014-Jul-24 04:32N 43°32' E 007°03'0 0.0
2014-Jul-24 03:33N 43°32' E 007°03'0 0.0
2014-Jul-24 02:33N 43°32' E 007°03'0 0.0
2014-Jul-24 01:33N 43°32' E 007°03'0 0.0
2014-Jul-24 00:33N 43°32' E 007°03'0 0.0
2014-Jul-23 23:33N 43°32' E 007°03'0 0.0
2014-Jul-23 22:33N 43°32' E 007°03'0 0.0
2014-Jul-23 21:32N 43°32' E 007°03'0 0.0
2014-Jul-23 20:33N 43°32' E 007°03'0 0.0
2014-Jul-23 19:32N 43°32' E 007°03'0 0.0
2014-Jul-23 18:33N 43°32' E 007°03'2 1.5
2014-Jul-23 17:27N 43°33' E 007°01'0 0.0
2014-Jul-23 16:33N 43°33' E 007°01'0 0.0
2014-Jul-23 15:21N 43°33' E 007°01'0 0.0
2014-Jul-23 14:33N 43°33' E 007°01'0 0.0
2014-Jul-23 13:27N 43°33' E 007°01'0 0.0
2014-Jul-23 12:27N 43°33' E 007°01'0 0.0
2014-Jul-23 11:33N 43°33' E 007°01'0 0.0
2014-Jul-23 10:33N 43°33' E 007°01'0 0.0
2014-Jul-23 09:27N 43°33' E 007°01'0 0.0
2014-Jul-23 08:27N 43°33' E 007°01'0 0.0
2014-Jul-23 07:33N 43°33' E 007°01'0 0.0
2014-Jul-23 06:27N 43°33' E 007°01'0 0.0
2014-Jul-23 05:21N 43°33' E 007°01'0 0.0
2014-Jul-23 04:21N 43°33' E 007°01'0 0.0
2014-Jul-23 03:33N 43°33' E 007°01'0 0.0
2014-Jul-23 02:33N 43°33' E 007°01'0 0.0
2014-Jul-23 00:21N 43°33' E 007°01'0 0.0
2014-Jul-22 22:33N 43°33' E 007°01'0 0.0
2014-Jul-22 21:33N 43°33' E 007°01'0 0.0
2014-Jul-22 20:33N 43°33' E 007°01'0 0.0
2014-Jul-22 18:06N 43°33' E 007°01'0 0.0
2014-Jul-22 17:27N 43°33' E 007°01'0 0.0
2014-Jul-22 16:33N 43°33' E 007°01'0 0.0
2014-Jul-22 15:33N 43°33' E 007°01'0 0.0
2014-Jul-22 14:09N 43°33' E 007°01'0 0.0
2014-Jul-22 13:15N 43°33' E 007°01'0 0.0
2014-Jul-22 12:33N 43°33' E 007°01'0 0.0
2014-Jul-22 11:27N 43°33' E 007°01'0 0.4
2014-Jul-22 10:33N 43°32' E 007°01'0 0.0
2014-Jul-22 09:27N 43°32' E 007°01'0 0.0
2014-Jul-22 08:33N 43°32' E 007°01'0 0.4
2014-Jul-22 07:33N 43°32' E 007°01'1 1.3
2014-Jul-22 06:31N 43°31' E 007°03'0 0.0
2014-Jul-22 05:31N 43°31' E 007°03'0 0.0
2014-Jul-22 04:28N 43°31' E 007°03'0 0.0
2014-Jul-22 03:31N 43°31' E 007°03'0 0.0
2014-Jul-22 02:31N 43°31' E 007°03'0 0.0
2014-Jul-22 01:19N 43°31' E 007°03'0 0.0
2014-Jul-22 00:25N 43°31' E 007°03'0 0.0
2014-Jul-21 23:13N 43°32' E 007°03'0 0.0
2014-Jul-21 22:31N 43°32' E 007°03'0 0.0
2014-Jul-21 21:31N 43°32' E 007°03'0 0.0
2014-Jul-21 20:25N 43°31' E 007°03'0 0.0
2014-Jul-21 20:13N 43°31' E 007°03'0 0.0
2014-Jul-21 19:31N 43°32' E 007°03'2 1.6
2014-Jul-21 18:33N 43°32' E 007°01'6 6.2
2014-Jul-21 17:33N 43°27' E 006°57'1313.5
2014-Jul-21 16:34N 43°18' E 006°43'4 4.3
2014-Jul-21 15:33N 43°16' E 006°37'0 0.1
2014-Jul-21 14:30N 43°16' E 006°37'2 2.1
2014-Jul-21 13:33N 43°17' E 006°40'1312.4
2014-Jul-21 12:31N 43°24' E 006°54'1110.8
2014-Jul-21 11:32N 43°32' E 007°05'2 2.1
2014-Jul-21 10:26N 43°34' E 007°06'0 0.0
2014-Jul-21 09:32N 43°34' E 007°06'0 0.0
2014-Jul-21 08:29N 43°34' E 007°06'0 0.0
2014-Jul-21 07:32N 43°34' E 007°06'0 0.0
2014-Jul-21 06:32N 43°34' E 007°06'0 0.0
2014-Jul-21 05:32N 43°34' E 007°06'0 0.0
2014-Jul-21 04:32N 43°34' E 007°06'0 0.0
2014-Jul-21 03:32N 43°34' E 007°06'0 0.0
2014-Jul-21 02:26N 43°34' E 007°06'0 0.0
2014-Jul-21 01:32N 43°34' E 007°06'0 0.0
2014-Jul-21 00:26N 43°34' E 007°06'0 0.0
2014-Jul-20 23:32N 43°34' E 007°06'0 0.0
2014-Jul-20 22:32N 43°34' E 007°06'0 0.0
2014-Jul-20 21:32N 43°34' E 007°06'0 0.0
2014-Jul-20 20:32N 43°34' E 007°06'0 0.0
2014-Jul-20 19:32N 43°34' E 007°06'0 0.0
2014-Jul-20 18:32N 43°34' E 007°06'0 0.0
2014-Jul-20 17:32N 43°34' E 007°06'0 0.0
2014-Jul-20 16:32N 43°34' E 007°06'0 0.0
2014-Jul-20 15:32N 43°34' E 007°06'0 0.0
2014-Jul-20 14:32N 43°34' E 007°06'0 0.5
2014-Jul-20 13:33N 43°33' E 007°06'1211.7
2014-Jul-20 12:33N 43°40' E 007°20'2 1.9
2014-Jul-20 11:17N 43°42' E 007°20'0 0.0
2014-Jul-20 05:15N 43°42' E 007°20'0 0.0
2014-Jul-20 03:24N 43°42' E 007°20'0 0.0
2014-Jul-20 02:15N 43°42' E 007°20'0 0.0
2014-Jul-20 01:33N 43°42' E 007°20'0 0.0
2014-Jul-20 00:33N 43°42' E 007°20'0 0.0
2014-Jul-19 23:30N 43°42' E 007°20'0 0.0
2014-Jul-19 22:30N 43°42' E 007°20'0 0.4
2014-Jul-19 21:33N 43°42' E 007°21'5 0.6
2014-Jul-19 13:14N 43°44' E 007°26'5 6.0
2014-Jul-19 12:24N 43°42' E 007°20'0 0.0
2014-Jul-19 11:33N 43°42' E 007°20'0 0.0
2014-Jul-19 10:33N 43°42' E 007°20'0 0.0
2014-Jul-19 09:33N 43°42' E 007°20'0 0.0
2014-Jul-19 08:26N 43°42' E 007°20'0 0.0
2014-Jul-19 07:33N 43°42' E 007°20'0 0.0
2014-Jul-19 06:33N 43°42' E 007°20'0 0.0
2014-Jul-19 05:32N 43°42' E 007°20'0 0.0
2014-Jul-19 04:33N 43°42' E 007°20'0 0.0
2014-Jul-19 03:28N 43°42' E 007°20'0 0.0
2014-Jul-19 02:33N 43°42' E 007°20'0 0.0
2014-Jul-19 01:27N 43°42' E 007°20'0 0.0
2014-Jul-19 00:33N 43°42' E 007°20'0 0.0
2014-Jul-18 23:33N 43°42' E 007°20'0 0.0
2014-Jul-18 22:33N 43°42' E 007°20'0 0.3
2014-Jul-18 21:31N 43°42' E 007°21'1010.1
2014-Jul-18 20:33N 43°34' E 007°13'1414.0
2014-Jul-18 19:33N 43°25' E 006°58'1414.3
2014-Jul-18 18:33N 43°18' E 006°41'3 3.3
2014-Jul-18 17:29N 43°16' E 006°37'0 0.0
2014-Jul-18 16:20N 43°16' E 006°37'0 0.0
2014-Jul-18 15:26N 43°16' E 006°37'0 0.0
2014-Jul-18 13:32N 43°16' E 006°37'0 0.0
2014-Jul-18 11:26N 43°16' E 006°37'0 0.1
2014-Jul-18 10:26N 43°16' E 006°37'0 0.0
2014-Jul-18 09:32N 43°16' E 006°37'0 0.0
2014-Jul-18 08:32N 43°16' E 006°37'  
Track history (hours):
 
Tides and Currents Weather Stations Pressure Air Temp Water Temp Dewpoint Dewpoint Depression Visibility Wind Speed Wind Dir Waves Ship Positions

Ilona

Last reported at 2014-Jul-28 08:29 UTC. Time now 2014-Jul-28 10:18 UTC.
Position N 43°43' E 007°26'.

Length 74 m; draft 3.7 m.

Type: Pleasure craft. MMSI: 503514000.

Date/timePositionNaut miles runAvg speedWind from/ knotsBaromVisibWave heightAir tempDewpointWater temp
2014-Jul-28 08:29N 43°43' E 007°26'4 1.3
2014-Jul-28 05:10N 43°42' E 007°20'0 0.0
2014-Jul-28 03:28N 43°42' E 007°20'0 0.0
2014-Jul-28 01:10N 43°42' E 007°20'0 0.0
2014-Jul-28 00:10N 43°42' E 007°20'0 0.0
2014-Jul-27 23:28N 43°42' E 007°20'0 0.0
2014-Jul-27 21:22N 43°42' E 007°20'0 0.0
2014-Jul-27 20:28N 43°42' E 007°20'0 0.0
2014-Jul-27 19:22N 43°42' E 007°20'0 0.0
2014-Jul-27 18:28N 43°42' E 007°20'0 0.0
2014-Jul-27 17:22N 43°42' E 007°20'0 0.0
2014-Jul-27 16:28N 43°42' E 007°20'0 0.0
2014-Jul-27 15:28N 43°42' E 007°20'0 0.0
2014-Jul-27 14:28N 43°42' E 007°20'0 0.2
2014-Jul-27 12:19N 43°42' E 007°21'0 0.0
2014-Jul-27 11:25N 43°42' E 007°21'4 4.1
2014-Jul-27 10:33N 43°39' E 007°18'1413.6
2014-Jul-27 09:33N 43°30' E 007°04'3 3.1
2014-Jul-27 08:26N 43°33' E 007°01'0 0.0
2014-Jul-27 07:29N 43°33' E 007°01'6 7.0
2014-Jul-27 06:33N 43°27' E 006°57'1313.5
2014-Jul-27 05:34N 43°18' E 006°42'4 4.2
2014-Jul-27 04:33N 43°16' E 006°37'0 0.0
2014-Jul-27 03:27N 43°16' E 006°37'0 0.0
2014-Jul-27 02:18N 43°16' E 006°37'0 0.0
2014-Jul-27 01:33N 43°16' E 006°37'0 0.0
2014-Jul-27 00:33N 43°16' E 006°37'0 0.0
2014-Jul-26 23:33N 43°16' E 006°37'0 0.0
2014-Jul-26 22:30N 43°16' E 006°37'0 0.0
2014-Jul-26 21:27N 43°16' E 006°37'0 0.0
2014-Jul-26 20:33N 43°16' E 006°37'0 0.0
2014-Jul-26 19:27N 43°16' E 006°37'0 0.0
2014-Jul-26 18:33N 43°16' E 006°37'0 0.0
2014-Jul-26 17:27N 43°16' E 006°37'0 0.0
2014-Jul-26 16:27N 43°16' E 006°37'0 0.0
2014-Jul-26 15:24N 43°16' E 006°37'0 0.0
2014-Jul-26 14:27N 43°16' E 006°37'0 0.0
2014-Jul-26 13:27N 43°16' E 006°37'1 0.6
2014-Jul-26 12:33N 43°16' E 006°37'0 0.1
2014-Jul-26 11:29N 43°16' E 006°37'0 0.0
2014-Jul-26 10:29N 43°16' E 006°37'0 0.1
2014-Jul-26 09:32N 43°16' E 006°37'0 0.0
2014-Jul-26 08:32N 43°16' E 006°37'0 0.0
2014-Jul-26 07:32N 43°16' E 006°37'0 0.0
2014-Jul-26 06:32N 43°16' E 006°37'0 0.0
2014-Jul-26 05:29N 43°16' E 006°37'0 0.0
2014-Jul-26 04:29N 43°16' E 006°37'0 0.0
2014-Jul-26 03:23N 43°16' E 006°37'0 0.0
2014-Jul-26 02:29N 43°16' E 006°37'0 0.0
2014-Jul-26 01:32N 43°16' E 006°37'0 0.0
2014-Jul-26 00:29N 43°16' E 006°37'0 0.0
2014-Jul-25 23:32N 43°16' E 006°37'0 0.0
2014-Jul-25 22:29N 43°16' E 006°37'0 0.0
2014-Jul-25 21:32N 43°16' E 006°37'0 0.0
2014-Jul-25 20:29N 43°16' E 006°37'0 0.0
2014-Jul-25 19:32N 43°16' E 006°37'4 4.0
2014-Jul-25 18:33N 43°18' E 006°41'1514.6
2014-Jul-25 17:33N 43°26' E 006°58'7 6.4
2014-Jul-25 16:31N 43°32' E 007°03'0 0.0
2014-Jul-25 15:31N 43°32' E 007°03'0 0.0
2014-Jul-25 14:31N 43°32' E 007°03'0 0.0
2014-Jul-25 13:31N 43°32' E 007°03'0 0.0
2014-Jul-25 12:25N 43°32' E 007°03'0 0.0
2014-Jul-25 11:07N 43°32' E 007°03'0 0.1
2014-Jul-25 10:31N 43°32' E 007°03'0 0.0
2014-Jul-25 09:31N 43°32' E 007°03'0 0.0
2014-Jul-25 08:31N 43°32' E 007°03'0 0.0
2014-Jul-25 06:31N 43°32' E 007°03'0 0.0
2014-Jul-25 05:19N 43°32' E 007°03'0 0.0
2014-Jul-25 04:25N 43°32' E 007°03'0 0.0
2014-Jul-25 03:31N 43°32' E 007°03'0 0.0
2014-Jul-25 02:13N 43°32' E 007°03'0 0.0
2014-Jul-25 01:25N 43°32' E 007°03'0 0.0
2014-Jul-25 00:13N 43°32' E 007°03'0 0.0
2014-Jul-24 23:31N 43°32' E 007°03'0 0.0
2014-Jul-24 21:19N 43°32' E 007°03'0 0.0
2014-Jul-24 19:31N 43°32' E 007°03'0 0.0
2014-Jul-24 17:31N 43°32' E 007°03'0 0.0
2014-Jul-24 16:19N 43°32' E 007°03'0 0.0
2014-Jul-24 15:13N 43°32' E 007°03'0 0.0
2014-Jul-24 14:31N 43°32' E 007°03'0 0.0
2014-Jul-24 13:31N 43°32' E 007°03'2 1.8
2014-Jul-24 12:34N 43°30' E 007°02'3 1.3
2014-Jul-24 10:31N 43°33' E 007°01'3 3.4
2014-Jul-24 09:33N 43°30' E 007°03'2 2.0
2014-Jul-24 08:33N 43°32' E 007°03'0 0.0
2014-Jul-24 07:33N 43°32' E 007°03'0 0.0
2014-Jul-24 06:32N 43°32' E 007°03'0 0.0
2014-Jul-24 05:33N 43°32' E 007°03'0 0.0
2014-Jul-24 04:32N 43°32' E 007°03'0 0.0
2014-Jul-24 03:33N 43°32' E 007°03'0 0.0
2014-Jul-24 02:33N 43°32' E 007°03'0 0.0
2014-Jul-24 01:33N 43°32' E 007°03'0 0.0
2014-Jul-24 00:33N 43°32' E 007°03'0 0.0
2014-Jul-23 23:33N 43°32' E 007°03'0 0.0
2014-Jul-23 22:33N 43°32' E 007°03'0 0.0
2014-Jul-23 21:32N 43°32' E 007°03'0 0.0
2014-Jul-23 20:33N 43°32' E 007°03'0 0.0
2014-Jul-23 19:32N 43°32' E 007°03'0 0.0
2014-Jul-23 18:33N 43°32' E 007°03'2 1.5
2014-Jul-23 17:27N 43°33' E 007°01'0 0.0
2014-Jul-23 16:33N 43°33' E 007°01'0 0.0
2014-Jul-23 15:21N 43°33' E 007°01'0 0.0
2014-Jul-23 14:33N 43°33' E 007°01'0 0.0
2014-Jul-23 13:27N 43°33' E 007°01'0 0.0
2014-Jul-23 12:27N 43°33' E 007°01'0 0.0
2014-Jul-23 11:33N 43°33' E 007°01'0 0.0
2014-Jul-23 10:33N 43°33' E 007°01'0 0.0
2014-Jul-23 09:27N 43°33' E 007°01'0 0.0
2014-Jul-23 08:27N 43°33' E 007°01'0 0.0
2014-Jul-23 07:33N 43°33' E 007°01'0 0.0
2014-Jul-23 06:27N 43°33' E 007°01'0 0.0
2014-Jul-23 05:21N 43°33' E 007°01'0 0.0
2014-Jul-23 04:21N 43°33' E 007°01'0 0.0
2014-Jul-23 03:33N 43°33' E 007°01'0 0.0
2014-Jul-23 02:33N 43°33' E 007°01'0 0.0
2014-Jul-23 00:21N 43°33' E 007°01'0 0.0
2014-Jul-22 22:33N 43°33' E 007°01'0 0.0
2014-Jul-22 21:33N 43°33' E 007°01'0 0.0
2014-Jul-22 20:33N 43°33' E 007°01'0 0.0
2014-Jul-22 18:06N 43°33' E 007°01'0 0.0
2014-Jul-22 17:27N 43°33' E 007°01'0 0.0
2014-Jul-22 16:33N 43°33' E 007°01'0 0.0
2014-Jul-22 15:33N 43°33' E 007°01'0 0.0
2014-Jul-22 14:09N 43°33' E 007°01'0 0.0
2014-Jul-22 13:15N 43°33' E 007°01'0 0.0
2014-Jul-22 12:33N 43°33' E 007°01'0 0.0
2014-Jul-22 11:27N 43°33' E 007°01'0 0.4
2014-Jul-22 10:33N 43°32' E 007°01'0 0.0
2014-Jul-22 09:27N 43°32' E 007°01'0 0.0
2014-Jul-22 08:33N 43°32' E 007°01'0 0.4
2014-Jul-22 07:33N 43°32' E 007°01'1 1.3
2014-Jul-22 06:31N 43°31' E 007°03'0 0.0
2014-Jul-22 05:31N 43°31' E 007°03'0 0.0
2014-Jul-22 04:28N 43°31' E 007°03'0 0.0
2014-Jul-22 03:31N 43°31' E 007°03'0 0.0
2014-Jul-22 02:31N 43°31' E 007°03'0 0.0
2014-Jul-22 01:19N 43°31' E 007°03'0 0.0
2014-Jul-22 00:25N 43°31' E 007°03'0 0.0
2014-Jul-21 23:13N 43°32' E 007°03'0 0.0
2014-Jul-21 22:31N 43°32' E 007°03'0 0.0
2014-Jul-21 21:31N 43°32' E 007°03'0 0.0
2014-Jul-21 20:25N 43°31' E 007°03'0 0.0
2014-Jul-21 20:13N 43°31' E 007°03'0 0.0
2014-Jul-21 19:31N 43°32' E 007°03'2 1.6
2014-Jul-21 18:33N 43°32' E 007°01'6 6.2
2014-Jul-21 17:33N 43°27' E 006°57'1313.5
2014-Jul-21 16:34N 43°18' E 006°43'4 4.3
2014-Jul-21 15:33N 43°16' E 006°37'0 0.1
2014-Jul-21 14:30N 43°16' E 006°37'2 2.1
2014-Jul-21 13:33N 43°17' E 006°40'1312.4
2014-Jul-21 12:31N 43°24' E 006°54'1110.8
2014-Jul-21 11:32N 43°32' E 007°05'2 2.1
2014-Jul-21 10:26N 43°34' E 007°06'0 0.0
2014-Jul-21 09:32N 43°34' E 007°06'0 0.0
2014-Jul-21 08:29N 43°34' E 007°06'0 0.0
2014-Jul-21 07:32N 43°34' E 007°06'0 0.0
2014-Jul-21 06:32N 43°34' E 007°06'0 0.0
2014-Jul-21 05:32N 43°34' E 007°06'0 0.0
2014-Jul-21 04:32N 43°34' E 007°06'0 0.0
2014-Jul-21 03:32N 43°34' E 007°06'0 0.0
2014-Jul-21 02:26N 43°34' E 007°06'0 0.0
2014-Jul-21 01:32N 43°34' E 007°06'0 0.0
2014-Jul-21 00:26N 43°34' E 007°06'0 0.0
2014-Jul-20 23:32N 43°34' E 007°06'0 0.0
2014-Jul-20 22:32N 43°34' E 007°06'0 0.0
2014-Jul-20 21:32N 43°34' E 007°06'0 0.0
2014-Jul-20 20:32N 43°34' E 007°06'0 0.0
2014-Jul-20 19:32N 43°34' E 007°06'0 0.0
2014-Jul-20 18:32N 43°34' E 007°06'0 0.0
2014-Jul-20 17:32N 43°34' E 007°06'0 0.0
2014-Jul-20 16:32N 43°34' E 007°06'0 0.0
2014-Jul-20 15:32N 43°34' E 007°06'0 0.0
2014-Jul-20 14:32N 43°34' E 007°06'0 0.5
2014-Jul-20 13:33N 43°33' E 007°06'1211.7
2014-Jul-20 12:33N 43°40' E 007°20'2 1.9
2014-Jul-20 11:17N 43°42' E 007°20'0 0.0
2014-Jul-20 05:15N 43°42' E 007°20'0 0.0
2014-Jul-20 03:24N 43°42' E 007°20'0 0.0
2014-Jul-20 02:15N 43°42' E 007°20'0 0.0
2014-Jul-20 01:33N 43°42' E 007°20'0 0.0
2014-Jul-20 00:33N 43°42' E 007°20'0 0.0
2014-Jul-19 23:30N 43°42' E 007°20'0 0.0
2014-Jul-19 22:30N 43°42' E 007°20'0 0.4
2014-Jul-19 21:33N 43°42' E 007°21'5 0.6
2014-Jul-19 13:14N 43°44' E 007°26'5 6.0
2014-Jul-19 12:24N 43°42' E 007°20'0 0.0
2014-Jul-19 11:33N 43°42' E 007°20'0 0.0
2014-Jul-19 10:33N 43°42' E 007°20'0 0.0
2014-Jul-19 09:33N 43°42' E 007°20'0 0.0
2014-Jul-19 08:26N 43°42' E 007°20'0 0.0
2014-Jul-19 07:33N 43°42' E 007°20'0 0.0
2014-Jul-19 06:33N 43°42' E 007°20'0 0.0
2014-Jul-19 05:32N 43°42' E 007°20'0 0.0
2014-Jul-19 04:33N 43°42' E 007°20'0 0.0
2014-Jul-19 03:28N 43°42' E 007°20'0 0.0
2014-Jul-19 02:33N 43°42' E 007°20'0 0.0
2014-Jul-19 01:27N 43°42' E 007°20'0 0.0
2014-Jul-19 00:33N 43°42' E 007°20'0 0.0
2014-Jul-18 23:33N 43°42' E 007°20'0 0.0
2014-Jul-18 22:33N 43°42' E 007°20'0 0.3
2014-Jul-18 21:31N 43°42' E 007°21'1010.1
2014-Jul-18 20:33N 43°34' E 007°13'1414.0
2014-Jul-18 19:33N 43°25' E 006°58'1414.3
2014-Jul-18 18:33N 43°18' E 006°41'3 3.3
2014-Jul-18 17:29N 43°16' E 006°37'0 0.0
2014-Jul-18 16:20N 43°16' E 006°37'0 0.0
2014-Jul-18 15:26N 43°16' E 006°37'0 0.0
2014-Jul-18 13:32N 43°16' E 006°37'0 0.0
2014-Jul-18 11:26N 43°16' E 006°37'0 0.1
2014-Jul-18 10:26N 43°16' E 006°37'0 0.0
2014-Jul-18 09:32N 43°16' E 006°37'0 0.0
2014-Jul-18 08:32N 43°16' E 006°37'  

Dump ship's entire track history